createdAt,value
2018-06-12T00:00:06.439Z,86.88
2018-06-12T00:01:06.416Z,86.97
2018-06-12T00:02:06.430Z,86.97
2018-06-12T00:03:06.416Z,86.88
2018-06-12T00:04:06.424Z,86.97
2018-06-12T00:05:06.411Z,86.97
2018-06-12T00:06:06.163Z,86.68
2018-06-12T00:07:06.136Z,86.64
2018-06-12T00:08:06.136Z,87.55
2018-06-12T00:09:06.139Z,87.41
2018-06-12T00:10:06.398Z,87.55
2018-06-12T00:11:06.119Z,87.74
2018-06-12T00:12:06.401Z,87.93
2018-06-12T00:13:06.370Z,87.74
2018-06-12T00:14:06.123Z,87.84
2018-06-12T00:15:06.359Z,87.64
2018-06-12T00:16:06.368Z,87.7
2018-06-12T00:17:06.093Z,87.84
2018-06-12T00:18:06.454Z,87.88
2018-06-12T00:19:06.339Z,88.08
2018-06-12T00:20:06.356Z,88.08
2018-06-12T00:21:06.342Z,87.79
2018-06-12T00:22:06.086Z,87.7
2018-06-12T00:23:06.067Z,88.17
2018-06-12T00:24:06.314Z,88.46
2018-06-12T00:25:06.325Z,88.46
2018-06-12T00:26:06.068Z,88.37
2018-06-12T00:27:06.064Z,88.65
2018-06-12T00:28:06.300Z,88.37
2018-06-12T00:29:06.053Z,88.17
2018-06-12T00:30:06.287Z,88.56
2018-06-12T00:31:06.047Z,88.27
2018-06-12T00:32:06.281Z,88.27
2018-06-12T00:33:06.037Z,88.27
2018-06-12T00:34:06.268Z,88.27
2018-06-12T00:35:06.028Z,88.65
2018-06-12T00:36:06.013Z,88.46
2018-06-12T00:37:06.280Z,88.37
2018-06-12T00:38:06.271Z,88.65
2018-06-12T00:39:06.260Z,88.46
2018-06-12T00:40:06.246Z,88.46
2018-06-12T00:41:05.996Z,88.37
2018-06-12T00:42:06.255Z,88.27
2018-06-12T00:43:05.992Z,88.46
2018-06-12T00:44:05.972Z,88.46
2018-06-12T00:45:05.978Z,88.46
2018-06-12T00:46:05.962Z,88.37
2018-06-12T00:47:05.974Z,88.46
2018-06-12T00:48:05.953Z,88.75
2018-06-12T00:49:05.966Z,88.56
2018-06-12T00:50:05.945Z,89.13
2018-06-12T00:51:05.959Z,88.75
2018-06-12T00:52:05.939Z,89.13
2018-06-12T00:53:06.191Z,88.75
2018-06-12T00:54:05.928Z,89.13
2018-06-12T00:55:06.196Z,88.94
2018-06-12T00:56:05.933Z,88.94
2018-06-12T00:57:06.181Z,88.65
2018-06-12T00:58:06.164Z,88.75
2018-06-12T00:59:05.905Z,89.32
2018-06-12T01:00:06.181Z,89.32
2018-06-12T01:01:06.154Z,88.84
2018-06-12T01:02:06.206Z,89.51
2018-06-12T01:03:06.175Z,89.23
2018-06-12T01:04:05.881Z,89.23
2018-06-12T01:05:05.893Z,89.13
2018-06-12T01:06:05.873Z,89.23
2018-06-12T01:07:06.141Z,89.28
2018-06-12T01:08:06.120Z,89.86
2018-06-12T01:09:06.117Z,89.95
2018-06-12T01:10:05.860Z,89.9
2018-06-12T01:11:06.130Z,89.86
2018-06-12T01:12:06.117Z,89.95
2018-06-12T01:13:05.846Z,90.14
2018-06-12T01:14:06.092Z,90.33
2018-06-12T01:15:05.831Z,90.05
2018-06-12T01:16:05.842Z,90.23
2018-06-12T01:17:05.828Z,89.76
2018-06-12T01:18:05.833Z,89.76
2018-06-12T01:19:06.077Z,90.23
2018-06-12T01:20:06.087Z,90.33
2018-06-12T01:21:05.805Z,90.23
2018-06-12T01:22:06.076Z,90.43
2018-06-12T01:23:06.172Z,90.62
2018-06-12T01:24:05.806Z,90.53
2018-06-12T01:25:05.798Z,90.62
2018-06-12T01:26:05.803Z,90.72
2018-06-12T01:27:06.085Z,90.43
2018-06-12T01:28:05.788Z,90.23
2018-06-12T01:29:05.773Z,90.72
2018-06-12T01:30:06.015Z,90.62
2018-06-12T01:31:05.758Z,90.43
2018-06-12T01:32:06.025Z,90.72
2018-06-12T01:33:05.754Z,90.43
2018-06-12T01:34:06.017Z,90.53
2018-06-12T01:35:05.739Z,90.33
2018-06-12T01:36:06.014Z,90.23
2018-06-12T01:37:05.730Z,90.53
2018-06-12T01:38:06.005Z,90.53
2018-06-12T01:39:05.973Z,90.86
2018-06-12T01:40:05.730Z,91
2018-06-12T01:41:05.971Z,90.86
2018-06-12T01:42:05.706Z,90.58
2018-06-12T01:43:05.716Z,90.43
2018-06-12T01:44:05.974Z,90.58
2018-06-12T01:45:05.947Z,90.48
2018-06-12T01:46:05.941Z,90.72
2018-06-12T01:47:05.932Z,90.81
2018-06-12T01:48:05.949Z,90.77
2018-06-12T01:49:05.677Z,91.29
2018-06-12T01:50:05.996Z,91.44
2018-06-12T01:51:05.661Z,91.05
2018-06-12T01:52:05.671Z,91.15
2018-06-12T01:53:05.926Z,91.05
2018-06-12T01:54:05.901Z,91.72
2018-06-12T01:55:05.657Z,91.63
2018-06-12T01:56:05.889Z,91.82
2018-06-12T01:57:05.893Z,92.01
2018-06-12T01:58:05.892Z,91.72
2018-06-12T01:59:05.892Z,91.44
2018-06-12T02:00:05.645Z,91.92
2018-06-12T02:01:05.873Z,91.44
2018-06-12T02:02:05.863Z,92.21
2018-06-12T02:03:05.853Z,91.63
2018-06-12T02:04:05.612Z,91.63
2018-06-12T02:05:05.848Z,92.01
2018-06-12T02:06:05.865Z,92.58
2018-06-12T02:07:05.837Z,92.49
2018-06-12T02:08:05.848Z,92.21
2018-06-12T02:09:05.827Z,92.4
2018-06-12T02:10:05.842Z,92.4
2018-06-12T02:11:05.563Z,92.4
2018-06-12T02:12:05.832Z,92.01
2018-06-12T02:13:05.564Z,92.49
2018-06-12T02:14:05.818Z,92.87
2018-06-12T02:15:05.800Z,92.44
2018-06-12T02:16:05.791Z,92.58
2018-06-12T02:17:05.543Z,92.4
2018-06-12T02:18:05.803Z,92.68
2018-06-12T02:19:05.775Z,92.58
2018-06-12T02:20:05.788Z,92.92
2018-06-12T02:21:05.769Z,92.35
2018-06-12T02:22:05.777Z,92.92
2018-06-12T02:23:05.500Z,92.44
2018-06-12T02:24:05.767Z,92.63
2018-06-12T02:25:05.742Z,92.63
2018-06-12T02:26:05.758Z,92.63
2018-06-12T02:27:05.733Z,92.44
2018-06-12T02:28:05.749Z,92.44
2018-06-12T02:29:05.479Z,92.44
2018-06-12T02:30:05.483Z,92.44
2018-06-12T02:31:05.460Z,92.83
2018-06-12T02:32:05.711Z,92.54
2018-06-12T02:33:05.721Z,93.21
2018-06-12T02:34:05.461Z,92.92
2018-06-12T02:35:05.729Z,92.83
2018-06-12T02:36:05.686Z,93.21
2018-06-12T02:37:05.707Z,92.73
2018-06-12T02:38:05.680Z,93.12
2018-06-12T02:39:05.689Z,92.87
2018-06-12T02:40:05.676Z,92.87
2018-06-12T02:41:05.694Z,92.97
2018-06-12T02:42:05.657Z,92.49
2018-06-12T02:43:05.676Z,92.58
2018-06-12T02:44:05.647Z,92.58
2018-06-12T02:45:05.677Z,92.58
2018-06-12T02:46:05.685Z,92.21
2018-06-12T02:47:05.629Z,92.58
2018-06-12T02:48:05.627Z,92.78
2018-06-12T02:49:05.638Z,92.58
2018-06-12T02:50:05.636Z,92.68
2018-06-12T02:51:05.390Z,92.97
2018-06-12T02:52:05.610Z,92.68
2018-06-12T02:53:05.647Z,92.68
2018-06-12T02:54:05.596Z,92.58
2018-06-12T02:55:05.617Z,92.3
2018-06-12T02:56:05.587Z,92.58
2018-06-12T02:57:05.605Z,92.49
2018-06-12T02:58:05.576Z,92.58
2018-06-12T02:59:05.595Z,92.4
2018-06-12T03:00:05.577Z,92.4
2018-06-12T03:01:05.579Z,92.49
2018-06-12T03:02:05.302Z,91.72
2018-06-12T03:03:05.569Z,92.01
2018-06-12T03:04:05.565Z,92.11
2018-06-12T03:05:05.547Z,91.92
2018-06-12T03:06:05.538Z,92.01
2018-06-12T03:07:05.532Z,92.21
2018-06-12T03:08:05.548Z,91.92
2018-06-12T03:09:05.525Z,92.21
2018-06-12T03:10:05.522Z,91.96
2018-06-12T03:11:05.275Z,91.96
2018-06-12T03:12:05.508Z,92.06
2018-06-12T03:13:05.525Z,92.21
2018-06-12T03:14:05.500Z,92.01
2018-06-12T03:15:05.513Z,92.15
2018-06-12T03:16:05.489Z,92.15
2018-06-12T03:17:05.490Z,91.67
2018-06-12T03:18:05.479Z,91.67
2018-06-12T03:19:05.495Z,91.58
2018-06-12T03:20:05.232Z,91.86
2018-06-12T03:21:05.216Z,91.86
2018-06-12T03:22:05.457Z,92.06
2018-06-12T03:23:05.479Z,91.39
2018-06-12T03:24:05.448Z,91.49
2018-06-12T03:25:05.200Z,91.39
2018-06-12T03:26:05.440Z,91.39
2018-06-12T03:27:05.454Z,91.49
2018-06-12T03:28:05.427Z,91.39
2018-06-12T03:29:05.187Z,91.29
2018-06-12T03:30:05.431Z,91.49
2018-06-12T03:31:05.447Z,91.19
2018-06-12T03:32:05.419Z,91.77
2018-06-12T03:33:05.158Z,91.39
2018-06-12T03:34:05.404Z,91.86
2018-06-12T03:35:05.160Z,91.58
2018-06-12T03:36:05.391Z,91.39
2018-06-12T03:37:05.399Z,91.19
2018-06-12T03:38:05.417Z,91.39
2018-06-12T03:39:05.395Z,91.58
2018-06-12T03:40:05.124Z,91.39
2018-06-12T03:41:05.125Z,91.39
2018-06-12T03:42:05.362Z,91.39
2018-06-12T03:43:05.384Z,91.19
2018-06-12T03:44:05.359Z,91.39
2018-06-12T03:45:05.112Z,91.19
2018-06-12T03:46:05.092Z,91.58
2018-06-12T03:47:05.360Z,91.34
2018-06-12T03:48:05.337Z,91.82
2018-06-12T03:49:05.083Z,90.67
2018-06-12T03:50:05.074Z,91.34
2018-06-12T03:51:05.085Z,91.34
2018-06-12T03:52:05.080Z,91.14
2018-06-12T03:53:05.321Z,90.76
2018-06-12T03:54:05.056Z,90.76
2018-06-12T03:55:05.052Z,90.38
2018-06-12T03:56:05.323Z,90
2018-06-12T03:57:05.300Z,90
2018-06-12T03:58:05.310Z,90.28
2018-06-12T03:59:05.284Z,90
2018-06-12T04:00:05.303Z,90.42
2018-06-12T04:01:05.283Z,88.79
2018-06-12T04:02:05.275Z,89.47
2018-06-12T04:03:05.031Z,89.37
2018-06-12T04:04:05.012Z,88.79
2018-06-12T04:05:05.023Z,88.02
2018-06-12T04:06:05.258Z,87.84
2018-06-12T04:07:05.014Z,88.31
2018-06-12T04:08:05.270Z,87.93
2018-06-12T04:09:05.253Z,87.74
2018-06-12T04:10:04.987Z,87.93
2018-06-12T04:11:04.982Z,87.64
2018-06-12T04:12:05.253Z,87.78
2018-06-12T04:13:05.232Z,87.21
2018-06-12T04:14:05.245Z,87.11
2018-06-12T04:15:05.033Z,86.82
2018-06-12T04:16:04.977Z,86.15
2018-06-12T04:17:05.213Z,86.34
2018-06-12T04:18:05.228Z,86.63
2018-06-12T04:19:05.204Z,86.25
2018-06-12T04:20:05.223Z,86.25
2018-06-12T04:21:05.219Z,86.25
2018-06-12T04:22:05.214Z,86.15
2018-06-12T04:23:05.186Z,86.34
2018-06-12T04:24:05.188Z,85.58
2018-06-12T04:25:05.196Z,85.71
2018-06-12T04:26:05.198Z,85.14
2018-06-12T04:27:04.918Z,85.42
2018-06-12T04:28:05.186Z,84.85
2018-06-12T04:29:05.179Z,84.08
2018-06-12T04:30:05.179Z,84.37
2018-06-12T04:31:04.903Z,84.08
2018-06-12T04:32:05.178Z,83.6
2018-06-12T04:33:05.148Z,83.45
2018-06-12T04:34:05.165Z,82.87
2018-06-12T04:35:05.145Z,83.16
2018-06-12T04:36:05.156Z,82.68
2018-06-12T04:37:05.148Z,81.82
2018-06-12T04:38:05.148Z,81.72
2018-06-12T04:39:05.128Z,82.2
2018-06-12T04:40:05.124Z,80.86
2018-06-12T04:41:04.878Z,80.96
2018-06-12T04:42:05.140Z,81.05
2018-06-12T04:43:05.135Z,80.66
2018-06-12T04:44:05.113Z,80.22
2018-06-12T04:45:05.122Z,79.75
2018-06-12T04:46:05.105Z,79.65
2018-06-12T04:47:05.154Z,79.55
2018-06-12T04:48:04.851Z,79.36
2018-06-12T04:49:05.113Z,79.17
2018-06-12T04:50:05.099Z,79.27
2018-06-12T04:51:04.852Z,79.07
2018-06-12T04:52:05.087Z,79.21
2018-06-12T04:53:05.098Z,78.25
2018-06-12T04:54:05.099Z,77.38
2018-06-12T04:55:04.825Z,77.19
2018-06-12T04:56:04.824Z,77.48
2018-06-12T04:57:04.831Z,77.61
2018-06-12T04:58:05.091Z,77.04
2018-06-12T04:59:05.086Z,76.26
2018-06-12T05:00:04.812Z,75.79
2018-06-12T05:01:05.079Z,75.79
2018-06-12T05:02:05.069Z,75.11
2018-06-12T05:03:05.076Z,74.76
2018-06-12T05:04:05.057Z,74.86
2018-06-12T05:05:05.075Z,74.63
2018-06-12T05:06:05.075Z,75.02
2018-06-12T05:07:04.798Z,74.73
2018-06-12T05:08:05.065Z,74.82
2018-06-12T05:09:05.057Z,73.57
2018-06-12T05:10:05.066Z,73.51
2018-06-12T05:11:05.042Z,73.57
2018-06-12T05:12:05.043Z,73.47
2018-06-12T05:13:05.047Z,71.84
2018-06-12T05:14:05.050Z,71.94
2018-06-12T05:15:05.049Z,72.42
2018-06-12T05:16:04.774Z,73.19
2018-06-12T05:17:05.047Z,73.19
2018-06-12T05:18:05.042Z,72.03
2018-06-12T05:19:05.022Z,71.94
2018-06-12T05:20:05.149Z,71.94
2018-06-12T05:21:05.019Z,72.42
2018-06-12T05:22:05.034Z,72.23
2018-06-12T05:23:05.015Z,71.78
2018-06-12T05:24:05.029Z,71.55
2018-06-12T05:25:04.765Z,70.5
2018-06-12T05:26:04.771Z,70.59
2018-06-12T05:27:05.006Z,70.3
2018-06-12T05:28:04.746Z,70.59
2018-06-12T05:29:04.754Z,70.5
2018-06-12T05:30:05.018Z,71.36
2018-06-12T05:31:05.091Z,71.26
2018-06-12T05:32:04.989Z,71.65
2018-06-12T05:33:05.002Z,70.88
2018-06-12T05:34:04.984Z,71.17
2018-06-12T05:35:05.009Z,70.68
2018-06-12T05:36:04.732Z,71.08
2018-06-12T05:37:05.000Z,71.08
2018-06-12T05:38:04.975Z,71.42
2018-06-12T05:39:04.992Z,71.52
2018-06-12T05:40:04.978Z,72.19
2018-06-12T05:41:04.722Z,72.58
2018-06-12T05:42:04.715Z,71.65
2018-06-12T05:43:04.987Z,71.65
2018-06-12T05:44:04.977Z,71.65
2018-06-12T05:45:04.977Z,70.98
2018-06-12T05:46:04.722Z,72.03
2018-06-12T05:47:04.720Z,70.88
2018-06-12T05:48:04.712Z,70.72
2018-06-12T05:49:04.968Z,70.43
2018-06-12T05:50:04.956Z,70.34
2018-06-12T05:51:04.712Z,69.47
2018-06-12T05:52:04.698Z,69.22
2018-06-12T05:53:04.964Z,68.16
2018-06-12T05:54:04.692Z,68.64
2018-06-12T05:55:04.968Z,68.64
2018-06-12T05:56:04.689Z,68.87
2018-06-12T05:57:04.950Z,68.29
2018-06-12T05:58:04.687Z,67.55
2018-06-12T05:59:04.702Z,67.16
2018-06-12T06:00:04.699Z,66.49
2018-06-12T06:01:04.942Z,65.95
2018-06-12T06:02:04.944Z,65.47
2018-06-12T06:03:04.940Z,65.78
2018-06-12T06:04:04.961Z,63.85
2018-06-12T06:05:04.687Z,63.4
2018-06-12T06:06:04.957Z,62.25
2018-06-12T06:07:04.687Z,61.51
2018-06-12T06:08:04.964Z,61.02
2018-06-12T06:09:04.689Z,58.54
2018-06-12T06:10:04.692Z,58.54
2018-06-12T06:11:04.972Z,57.7
2018-06-12T06:12:04.953Z,57.92
2018-06-12T06:13:04.949Z,55.99
2018-06-12T06:14:04.694Z,55.05
2018-06-12T06:15:04.714Z,53.72
2018-06-12T06:16:04.974Z,52.68
2018-06-12T06:17:05.045Z,52.2
2018-06-12T06:18:05.014Z,51.84
2018-06-12T06:19:04.966Z,50.89
2018-06-12T06:20:05.002Z,51.01
2018-06-12T06:21:04.990Z,50.36
2018-06-12T06:22:05.006Z,48.54
2018-06-12T06:23:05.017Z,47.69
2018-06-12T06:24:05.019Z,47.13
2018-06-12T06:25:05.003Z,46.37
2018-06-12T06:26:04.771Z,45.81
2018-06-12T06:27:05.020Z,44.86
2018-06-12T06:28:05.047Z,44.48
2018-06-12T06:29:05.048Z,43.43
2018-06-12T06:30:04.801Z,42.35
2018-06-12T06:31:05.046Z,41.86
2018-06-12T06:32:04.808Z,41.69
2018-06-12T06:33:05.077Z,41.5
2018-06-12T06:34:05.128Z,40.52
2018-06-12T06:35:05.090Z,41.4
2018-06-12T06:36:04.850Z,41.13
2018-06-12T06:37:05.104Z,40.25
2018-06-12T06:38:05.133Z,40.45
2018-06-12T06:39:04.861Z,40.72
2018-06-12T06:40:04.886Z,40.72
2018-06-12T06:41:05.131Z,40.72
2018-06-12T06:42:05.162Z,40.52
2018-06-12T06:43:05.258Z,39.36
2018-06-12T06:44:04.920Z,40.21
2018-06-12T06:45:05.180Z,40.21
2018-06-12T06:46:04.932Z,40.58
2018-06-12T06:47:05.181Z,41.53
2018-06-12T06:48:05.211Z,41.53
2018-06-12T06:49:05.208Z,42.02
2018-06-12T06:50:05.234Z,42.31
2018-06-12T06:51:05.367Z,41.9
2018-06-12T06:52:04.964Z,41.83
2018-06-12T06:53:04.991Z,41.63
2018-06-12T06:54:05.232Z,40.78
2018-06-12T06:55:05.260Z,40.78
2018-06-12T06:56:05.247Z,40.41
2018-06-12T06:57:05.281Z,39.43
2018-06-12T06:58:05.263Z,38.95
2018-06-12T06:59:05.292Z,39.92
2018-06-12T07:00:05.285Z,39.72
2018-06-12T07:01:05.055Z,39.62
2018-06-12T07:02:05.317Z,39.34
2018-06-12T07:03:05.316Z,39.24
2018-06-12T07:04:05.316Z,39.14
2018-06-12T07:05:05.340Z,39.62
2018-06-12T07:06:05.102Z,39.41
2018-06-12T07:07:05.357Z,39.72
2018-06-12T07:08:05.354Z,39.8
2018-06-12T07:09:05.504Z,40.39
2018-06-12T07:10:05.361Z,39.22
2018-06-12T07:11:05.390Z,39.8
2018-06-12T07:12:05.404Z,40.17
2018-06-12T07:13:05.399Z,39.2
2018-06-12T07:14:05.410Z,40.08
2018-06-12T07:15:05.531Z,40.73
2018-06-12T07:16:05.423Z,41.03
2018-06-12T07:17:05.424Z,41.13
2018-06-12T07:18:05.420Z,41.32
2018-06-12T07:19:05.447Z,41.14
2018-06-12T07:20:05.200Z,40.88
2018-06-12T07:21:05.199Z,40.78
2018-06-12T07:22:05.457Z,38.85
2018-06-12T07:23:05.475Z,38.56
2018-06-12T07:24:05.482Z,38.85
2018-06-12T07:25:05.731Z,39.22
2018-06-12T07:26:05.540Z,38.83
2018-06-12T07:27:05.514Z,38.44
2018-06-12T07:28:05.498Z,38.83
2018-06-12T07:29:05.532Z,38.81
2018-06-12T07:30:05.293Z,40.06
2018-06-12T07:31:05.283Z,40.42
2018-06-12T07:32:05.273Z,41.08
2018-06-12T07:33:05.539Z,41.64
2018-06-12T07:34:06.816Z,42.3
2018-06-12T07:35:05.565Z,42.5
2018-06-12T07:36:05.590Z,42.99
2018-06-12T07:37:05.561Z,43.72
2018-06-12T07:38:05.586Z,44.3
2018-06-12T07:39:05.827Z,44.96
2018-06-12T07:40:05.606Z,45.34
2018-06-12T07:41:05.643Z,45.54
2018-06-12T07:42:05.610Z,45.9
2018-06-12T07:43:05.599Z,46.48
2018-06-12T07:44:05.660Z,46.75
2018-06-12T07:45:05.614Z,47.6
2018-06-12T07:46:05.365Z,47.99
2018-06-12T07:47:05.650Z,48.08
2018-06-12T07:48:05.660Z,47.91
2018-06-12T07:49:05.652Z,46.84
2018-06-12T07:50:05.389Z,46.48
2018-06-12T07:51:05.414Z,46.67
2018-06-12T07:52:05.683Z,45.05
2018-06-12T07:53:05.647Z,44.2
2018-06-12T07:54:05.695Z,43.91
2018-06-12T07:55:05.814Z,44.68
2018-06-12T07:56:05.446Z,44.2
2018-06-12T07:57:05.677Z,44.1
2018-06-12T07:58:05.708Z,44.3
2018-06-12T07:59:05.692Z,43.74
2018-06-12T08:00:05.461Z,42.79
2018-06-12T08:01:05.456Z,42.3
2018-06-12T08:02:05.747Z,41.72
2018-06-12T08:03:05.753Z,41.14
2018-06-12T08:04:05.763Z,41.16
2018-06-12T08:05:05.500Z,41.16
2018-06-12T08:06:05.757Z,40.69
2018-06-12T08:07:05.868Z,39.65
2018-06-12T08:08:05.760Z,39.06
2018-06-12T08:09:05.559Z,38.39
2018-06-12T08:10:05.800Z,38.96
2018-06-12T08:11:05.554Z,39.06
2018-06-12T08:12:05.827Z,39.08
2018-06-12T08:13:05.856Z,37.92
2018-06-12T08:14:05.838Z,38.5
2018-06-12T08:15:05.620Z,38.01
2018-06-12T08:16:05.573Z,38.19
2018-06-12T08:17:05.870Z,38.67
2018-06-12T08:18:05.596Z,39.14
2018-06-12T08:19:05.599Z,40.19
2018-06-12T08:20:05.876Z,40.26
2018-06-12T08:21:05.635Z,41.05
2018-06-12T08:22:05.877Z,41.14
2018-06-12T08:23:05.880Z,40.67
2018-06-12T08:24:05.903Z,40.48
2018-06-12T08:25:05.662Z,40.01
2018-06-12T08:26:05.657Z,39.14
2018-06-12T08:27:05.683Z,39.06
2018-06-12T08:28:05.923Z,38.39
2018-06-12T08:29:05.971Z,37.8
2018-06-12T08:30:06.302Z,37.9
2018-06-12T08:31:05.965Z,37.9
2018-06-12T08:32:06.239Z,37.14
2018-06-12T08:33:06.023Z,37.51
2018-06-12T08:34:06.003Z,37.12
2018-06-12T08:35:05.729Z,37.22
2018-06-12T08:36:05.758Z,38.29
2018-06-12T08:37:06.049Z,37.99
2018-06-12T08:38:06.020Z,37.51
2018-06-12T08:39:05.766Z,37.32
2018-06-12T08:40:06.063Z,37.49
2018-06-12T08:41:05.803Z,37.88
2018-06-12T08:42:06.058Z,38.37
2018-06-12T08:43:05.830Z,38.95
2018-06-12T08:44:05.825Z,39.04
2018-06-12T08:45:06.086Z,38.77
2018-06-12T08:46:06.112Z,37.52
2018-06-12T08:47:06.115Z,36.94
2018-06-12T08:48:06.152Z,37.06
2018-06-12T08:49:06.115Z,36.18
2018-06-12T08:50:06.138Z,35.88
2018-06-12T08:51:06.137Z,36.46
2018-06-12T08:52:05.911Z,37.39
2018-06-12T08:53:05.933Z,37.94
2018-06-12T08:54:06.204Z,38.79
2018-06-12T08:55:05.927Z,40.13
2018-06-12T08:56:05.941Z,40.69
2018-06-12T08:57:06.228Z,41.27
2018-06-12T08:58:12.481Z,41.76
2018-06-12T08:59:05.983Z,41.08
2018-06-12T09:00:06.239Z,41.27
2018-06-12T09:01:06.272Z,41.17
2018-06-12T09:02:06.248Z,41.47
2018-06-12T09:03:06.282Z,42.61
2018-06-12T09:04:06.217Z,41.64
2018-06-12T09:05:06.330Z,42.71
2018-06-12T09:06:06.297Z,42.4
2018-06-12T09:07:06.329Z,42.3
2018-06-12T09:08:06.297Z,43.27
2018-06-12T09:09:06.352Z,42.66
2018-06-12T09:10:06.363Z,43.54
2018-06-12T09:11:06.320Z,44.19
2018-06-12T09:12:06.324Z,44.57
2018-06-12T09:13:06.351Z,45.16
2018-06-12T09:14:06.093Z,43.73
2018-06-12T09:15:06.377Z,43.82
2018-06-12T09:16:06.093Z,43.73
2018-06-12T09:17:06.369Z,43.24
2018-06-12T09:18:06.373Z,42.78
2018-06-12T09:19:06.378Z,42.68
2018-06-12T09:20:06.364Z,43.07
2018-06-12T09:21:06.137Z,42.49
2018-06-12T09:22:06.400Z,42.68
2018-06-12T09:23:06.397Z,42.78
2018-06-12T09:24:06.379Z,42.4
2018-06-12T09:25:06.168Z,42
2018-06-12T09:26:06.469Z,42.3
2018-06-12T09:27:06.155Z,42.47
2018-06-12T09:28:06.171Z,43.63
2018-06-12T09:29:06.146Z,44.96
2018-06-12T09:30:06.428Z,45.62
2018-06-12T09:31:06.438Z,46.85
2018-06-12T09:32:06.437Z,46.56
2018-06-12T09:33:06.419Z,46.34
2018-06-12T09:34:06.182Z,47.6
2018-06-12T09:35:06.458Z,47.89
2018-06-12T09:36:06.474Z,49.05
2018-06-12T09:37:06.466Z,48.86
2018-06-12T09:38:06.479Z,48.86
2018-06-12T09:39:06.445Z,48.57
2018-06-12T09:40:06.692Z,47.22
2018-06-12T09:41:06.476Z,48.08
2018-06-12T09:42:06.462Z,47.99
2018-06-12T09:43:06.459Z,47.6
2018-06-12T09:44:06.476Z,47.41
2018-06-12T09:45:06.211Z,48.18
2018-06-12T09:46:06.464Z,47.87
2018-06-12T09:47:06.479Z,48.06
2018-06-12T09:48:06.511Z,49.32
2018-06-12T09:49:06.494Z,49.32
2018-06-12T09:50:06.486Z,49.68
2018-06-12T09:51:06.471Z,50.54
2018-06-12T09:52:06.479Z,50.45
2018-06-12T09:53:06.449Z,50.16
2018-06-12T09:54:06.473Z,49.77
2018-06-12T09:55:06.465Z,51.12
2018-06-12T09:56:06.490Z,50.62
2018-06-12T09:57:06.508Z,50.52
2018-06-12T09:58:06.421Z,49.96
2018-06-12T09:59:06.459Z,50.54
2018-06-12T10:00:06.503Z,49.77
2018-06-12T10:01:06.486Z,49.77
2018-06-12T10:02:06.473Z,50.81
2018-06-12T10:03:06.459Z,51.68
2018-06-12T10:04:06.477Z,51.77
2018-06-12T10:05:06.481Z,52.19
2018-06-12T10:06:06.479Z,51.89
2018-06-12T10:07:06.474Z,51.89
2018-06-12T10:08:06.489Z,51.53
2018-06-12T10:09:06.462Z,50.76
2018-06-12T10:10:06.484Z,50.38
2018-06-12T10:11:06.207Z,50.67
2018-06-12T10:12:06.481Z,50.67
2018-06-12T10:13:06.472Z,50.31
2018-06-12T10:14:06.485Z,50.11
2018-06-12T10:15:06.483Z,49.44
2018-06-12T10:16:06.503Z,49.53
2018-06-12T10:17:06.461Z,49.63
2018-06-12T10:18:06.489Z,49.92
2018-06-12T10:19:06.483Z,49.44
2018-06-12T10:20:06.229Z,49.53
2018-06-12T10:21:06.470Z,49.53
2018-06-12T10:22:06.487Z,49.44
2018-06-12T10:23:06.474Z,48.59
2018-06-12T10:24:06.490Z,48.79
2018-06-12T10:25:06.740Z,48.47
2018-06-12T10:26:06.484Z,48.37
2018-06-12T10:27:06.509Z,49.24
2018-06-12T10:28:06.476Z,49.24
2018-06-12T10:29:06.501Z,49.63
2018-06-12T10:30:06.500Z,49.92
2018-06-12T10:31:06.529Z,49.92
2018-06-12T10:32:06.495Z,50.23
2018-06-12T10:33:06.498Z,49.46
2018-06-12T10:34:06.520Z,49
2018-06-12T10:35:06.488Z,48.42
2018-06-12T10:36:06.712Z,48.16
2018-06-12T10:37:06.544Z,47.38
2018-06-12T10:38:06.527Z,47.77
2018-06-12T10:39:06.485Z,47.19
2018-06-12T10:40:06.514Z,47.69
2018-06-12T10:41:06.262Z,47.89
2018-06-12T10:42:06.522Z,47.6
2018-06-12T10:43:06.258Z,47.5
2018-06-12T10:44:06.542Z,47.21
2018-06-12T10:45:06.532Z,46.44
2018-06-12T10:46:06.506Z,46.17
2018-06-12T10:47:06.285Z,46.36
2018-06-12T10:48:06.533Z,45.68
2018-06-12T10:49:06.522Z,46.05
2018-06-12T10:50:06.323Z,45.86
2018-06-12T10:51:06.257Z,46.25
2018-06-12T10:52:06.533Z,45.76
2018-06-12T10:53:06.518Z,45.83
2018-06-12T10:54:06.302Z,46.51
2018-06-12T10:55:06.530Z,45.35
2018-06-12T10:56:06.535Z,45.45
2018-06-12T10:57:06.540Z,46.2
2018-06-12T10:58:06.530Z,46.78
2018-06-12T10:59:06.548Z,47.07
2018-06-12T11:00:06.551Z,47.74
2018-06-12T11:01:06.541Z,47.94
2018-06-12T11:02:06.568Z,47.16
2018-06-12T11:03:06.562Z,46.88
2018-06-12T11:04:06.289Z,46.58
2018-06-12T11:05:06.563Z,47.65
2018-06-12T11:06:06.556Z,48.03
2018-06-12T11:07:06.556Z,48.03
2018-06-12T11:08:06.535Z,47.36
2018-06-12T11:09:06.544Z,46.49
2018-06-12T11:10:06.286Z,47.74
2018-06-12T11:11:06.499Z,46.58
2018-06-12T11:12:06.301Z,46.78
2018-06-12T11:13:06.556Z,47.36
2018-06-12T11:14:06.541Z,47.26
2018-06-12T11:15:06.546Z,47.65
2018-06-12T11:16:06.551Z,47.65
2018-06-12T11:17:06.552Z,48.23
2018-06-12T11:18:06.557Z,48.32
2018-06-12T11:19:06.543Z,49.29
2018-06-12T11:20:06.547Z,47.26
2018-06-12T11:21:06.544Z,47.65
2018-06-12T11:22:06.293Z,48.3
2018-06-12T11:23:06.588Z,49.46
2018-06-12T11:24:06.547Z,49.75
2018-06-12T11:25:06.554Z,47.91
2018-06-12T11:26:06.296Z,47.81
2018-06-12T11:27:06.556Z,48.3
2018-06-12T11:28:06.577Z,49.44
2018-06-12T11:29:06.549Z,49.34
2018-06-12T11:30:06.316Z,49.53
2018-06-12T11:31:06.550Z,48.08
2018-06-12T11:32:06.553Z,48.18
2018-06-12T11:33:06.609Z,47.99
2018-06-12T11:34:06.597Z,48.18
2018-06-12T11:35:06.553Z,49.44
2018-06-12T11:36:06.313Z,49.73
2018-06-12T11:37:06.553Z,49.63
2018-06-12T11:38:06.558Z,49.34
2018-06-12T11:39:06.565Z,49.53
2018-06-12T11:40:06.566Z,49.63
2018-06-12T11:41:06.553Z,49.63
2018-06-12T11:42:06.553Z,49.53
2018-06-12T11:43:06.556Z,50.5
2018-06-12T11:44:06.585Z,50.69
2018-06-12T11:45:06.554Z,51.37
2018-06-12T11:46:06.555Z,50.79
2018-06-12T11:47:06.314Z,50.69
2018-06-12T11:48:06.570Z,50.21
2018-06-12T11:49:06.569Z,49.53
2018-06-12T11:50:06.577Z,49.73
2018-06-12T11:51:06.679Z,50.98
2018-06-12T11:52:06.303Z,50.18
2018-06-12T11:53:06.552Z,50.18
2018-06-12T11:54:06.572Z,50.59
2018-06-12T11:55:06.560Z,50.86
2018-06-12T11:56:06.300Z,51.05
2018-06-12T11:57:06.552Z,51.85
2018-06-12T11:58:06.563Z,51.56
2018-06-12T11:59:06.568Z,51.95
2018-06-12T12:00:06.559Z,51.75
2018-06-12T12:01:06.623Z,51.65
2018-06-12T12:02:06.551Z,50.89
2018-06-12T12:03:06.555Z,50.79
2018-06-12T12:04:06.568Z,50.69
2018-06-12T12:05:06.561Z,49.53
2018-06-12T12:06:06.560Z,50.21
2018-06-12T12:07:06.590Z,49.44
2018-06-12T12:08:06.560Z,49.15
2018-06-12T12:09:06.563Z,49.34
2018-06-12T12:10:06.547Z,50.09
2018-06-12T12:11:06.581Z,50.18
2018-06-12T12:12:06.294Z,50.18
2018-06-12T12:13:06.546Z,50.76
2018-06-12T12:14:06.553Z,51.41
2018-06-12T12:15:06.308Z,50.74
2018-06-12T12:16:06.549Z,51.12
2018-06-12T12:17:06.617Z,51.8
2018-06-12T12:18:06.573Z,51.92
2018-06-12T12:19:07.036Z,52.31
2018-06-12T12:20:06.552Z,52.31
2018-06-12T12:21:06.551Z,52.79
2018-06-12T12:22:06.310Z,52.33
2018-06-12T12:23:06.548Z,51.95
2018-06-12T12:24:06.287Z,51.65
2018-06-12T12:25:06.542Z,49.82
2018-06-12T12:26:06.561Z,50.21
2018-06-12T12:27:06.552Z,49.73
2018-06-12T12:28:06.562Z,50.21
2018-06-12T12:29:06.537Z,50.21
2018-06-12T12:30:06.543Z,50.11
2018-06-12T12:31:06.289Z,49.92
2018-06-12T12:32:06.535Z,49.34
2018-06-12T12:33:06.313Z,49.34
2018-06-12T12:34:06.585Z,49.44
2018-06-12T12:35:06.537Z,50.01
2018-06-12T12:36:06.533Z,49.63
2018-06-12T12:37:06.550Z,49.63
2018-06-12T12:38:06.533Z,50.21
2018-06-12T12:39:06.569Z,50.59
2018-06-12T12:40:06.546Z,50.89
2018-06-12T12:41:06.537Z,50.69
2018-06-12T12:42:06.282Z,50.5
2018-06-12T12:43:06.546Z,50.79
2018-06-12T12:44:06.548Z,50.59
2018-06-12T12:45:06.556Z,50.69
2018-06-12T12:46:06.530Z,51.17
2018-06-12T12:47:06.532Z,51.27
2018-06-12T12:48:06.532Z,51.37
2018-06-12T12:49:06.549Z,51.07
2018-06-12T12:50:06.533Z,51.17
2018-06-12T12:51:06.301Z,50.89
2018-06-12T12:52:06.538Z,51.46
2018-06-12T12:53:06.358Z,51.85
2018-06-12T12:54:06.530Z,51.65